Time;durP1;ratioP1;P1;durP2;ratioP2;P2;SDS_P1;SDS_P2;PMS_P1;PMS_P2;Temp;Humidity;BMP_temperature;BMP_pressure;BME280_temperature;BME280_humidity;BME280_pressure;Samples;Min_cycle;Max_cycle;Signal;HPM_P1;HPM_P2
2023/01/07 00:06:43;;;;;;;2.20;1.00;;;11.50;97.60;;;;;;21171654;28;20623;-77
2023/01/07 00:16:44;;;;;;;0.90;0.90;;;11.50;97.60;;;;;;21170557;28;20267;-77
2023/01/07 00:26:46;;;;;;;1.37;0.80;;;11.50;97.50;;;;;;21169677;28;20204;-77
2023/01/07 00:36:48;;;;;;;1.10;0.93;;;11.60;97.50;;;;;;21170129;28;20237;-77
2023/01/07 00:46:50;;;;;;;1.47;1.30;;;11.60;97.50;;;;;;21167783;28;20237;-75
2023/01/07 00:56:51;;;;;;;1.37;1.20;;;11.60;97.50;;;;;;21167248;28;20329;-76
2023/01/07 01:06:53;;;;;;;1.83;1.27;;;11.60;97.50;;;;;;21167020;28;20258;-75
2023/01/07 01:16:55;;;;;;;1.33;1.23;;;11.60;97.40;;;;;;21165502;28;20237;-76
2023/01/07 01:26:56;;;;;;;1.10;1.00;;;11.60;97.50;;;;;;21164953;28;20209;-76
2023/01/07 01:36:58;;;;;;;2.90;1.60;;;11.60;97.50;;;;;;21164229;28;20240;-75
2023/01/07 01:47:02;;;;;;;1.50;1.40;;;11.50;97.40;;;;;;21163730;28;20356;-76
2023/01/07 01:57:06;;;;;;;4.20;1.50;;;11.40;97.60;;;;;;21163308;28;20332;-76
2023/01/07 02:07:14;;;;;;;1.43;1.30;;;11.40;97.90;;;;;;21162923;28;20205;-77
2023/01/07 02:17:47;;;;;;;1.73;1.40;;;11.40;98.10;;;;;;21162822;28;20230;-75
2023/01/07 02:28:09;;;;;;;1.50;1.40;;;11.30;98.30;;;;;;21162028;28;20214;-75
2023/01/07 02:38:21;;;;;;;4.43;1.60;;;11.20;98.50;;;;;;21161477;28;20288;-77
2023/01/07 02:48:24;;;;;;;1.70;1.40;;;11.20;98.60;;;;;;21166766;28;20232;-76
2023/01/07 02:58:41;;;;;;;3.73;1.50;;;11.10;98.80;;;;;;21177063;28;20701;-78
2023/01/07 03:09:14;;;;;;;1.80;1.57;;;11.10;99.10;;;;;;21176025;28;20613;-76
2023/01/07 03:19:21;;;;;;;1.70;1.60;;;11.00;99.40;;;;;;21175822;28;20249;-79
2023/01/07 03:29:23;;;;;;;1.73;1.50;;;11.00;99.70;;;;;;21175016;28;20236;-76
2023/01/07 03:39:27;;;;;;;2.40;1.70;;;10.90;99.90;;;;;;21173894;28;20212;-76
2023/01/07 03:49:30;;;;;;;1.23;1.13;;;10.90;99.90;;;;;;21172980;28;20240;-76
2023/01/07 03:59:32;;;;;;;1.73;1.20;;;10.90;99.90;;;;;;21171662;28;20263;-76
2023/01/07 04:09:34;;;;;;;1.40;1.30;;;10.90;99.90;;;;;;21171655;28;20351;-76
2023/01/07 04:19:37;;;;;;;3.90;1.63;;;11.00;99.90;;;;;;21170808;28;20206;-77
2023/01/07 04:29:39;;;;;;;1.40;1.30;;;11.00;99.90;;;;;;21170122;28;20228;-78
2023/01/07 04:39:40;;;;;;;1.70;1.50;;;11.00;99.90;;;;;;21168742;28;20210;-78
2023/01/07 04:49:42;;;;;;;1.53;1.43;;;11.00;99.90;;;;;;21167756;28;20227;-77
2023/01/07 04:59:43;;;;;;;2.17;1.70;;;11.00;99.90;;;;;;21166802;28;20211;-76
2023/01/07 05:09:45;;;;;;;1.60;1.37;;;11.00;99.90;;;;;;21165335;28;20233;-77
2023/01/07 05:19:47;;;;;;;3.63;1.90;;;11.00;99.90;;;;;;21165999;28;20258;-78
2023/01/07 05:29:48;;;;;;;1.97;1.70;;;11.00;99.90;;;;;;21164942;28;20232;-78
2023/01/07 05:39:50;;;;;;;2.70;1.60;;;11.00;99.90;;;;;;21163389;28;20261;-78
2023/01/07 05:49:51;;;;;;;1.80;1.70;;;11.10;99.90;;;;;;21163970;28;20587;-77
2023/01/07 05:59:53;;;;;;;2.13;1.87;;;11.00;99.90;;;;;;21163109;28;20720;-78
2023/01/07 06:09:55;;;;;;;2.77;2.07;;;11.00;99.90;;;;;;21162871;28;20761;-78
2023/01/07 06:19:56;;;;;;;3.57;2.03;;;11.00;99.90;;;;;;21163988;28;20257;-79
2023/01/07 06:29:58;;;;;;;3.80;2.10;;;10.90;99.90;;;;;;21178963;28;20229;-78
2023/01/07 06:39:59;;;;;;;2.03;1.83;;;10.90;99.90;;;;;;21178481;28;20206;-78
2023/01/07 06:50:01;;;;;;;2.40;1.90;;;10.90;99.90;;;;;;21177632;28;20280;-77
2023/01/07 07:00:03;;;;;;;2.37;1.90;;;11.00;99.90;;;;;;21176790;28;20570;-77
2023/01/07 07:10:06;;;;;;;1.10;1.00;;;11.00;99.90;;;;;;21176897;28;20265;-79
2023/01/07 07:20:08;;;;;;;2.27;1.50;;;11.00;99.90;;;;;;21175798;28;20209;-80
2023/01/07 07:30:11;;;;;;;1.10;1.00;;;11.10;99.80;;;;;;21174713;28;20625;-80
2023/01/07 07:40:13;;;;;;;1.00;0.90;;;11.10;99.50;;;;;;21185985;27;20271;-79
2023/01/07 07:50:15;;;;;;;2.33;1.00;;;11.20;99.10;;;;;;21255291;27;20242;-77
2023/01/07 08:00:16;;;;;;;2.30;1.70;;;11.30;98.90;;;;;;21257140;27;20719;-81
2023/01/07 08:10:19;;;;;;;2.30;1.50;;;11.30;98.60;;;;;;21260043;27;20236;-81
2023/01/07 08:20:21;;;;;;;2.20;1.70;;;11.40;98.40;;;;;;21163448;27;20694;-78
2023/01/07 08:30:23;;;;;;;1.37;1.27;;;11.40;98.20;;;;;;21164828;28;20288;-77
2023/01/07 08:40:24;;;;;;;3.13;1.40;;;11.50;97.90;;;;;;21167320;28;20193;-77
2023/01/07 08:50:31;;;;;;;1.87;1.40;;;11.50;97.60;;;;;;21193401;27;20272;-77
2023/01/07 09:00:33;;;;;;;2.20;1.63;;;11.50;97.40;;;;;;21250845;27;20660;-77
2023/01/07 09:10:34;;;;;;;3.57;1.70;;;11.60;97.30;;;;;;21251225;27;20254;-76
2023/01/07 09:20:36;;;;;;;3.70;2.40;;;11.50;97.40;;;;;;21226405;27;20996;-75
2023/01/07 09:30:38;;;;;;;3.00;2.37;;;12.10;97.10;;;;;;21250406;27;20237;-74
2023/01/07 09:40:42;;;;;;;6.13;2.30;;;11.70;97.10;;;;;;21248729;27;20269;-74
2023/01/07 09:51:01;;;;;;;5.27;2.53;;;11.70;97.20;;;;;;21247703;27;20722;-74
2023/01/07 10:01:26;;;;;;;2.77;2.30;;;11.70;97.20;;;;;;21207973;27;20218;-74
2023/01/07 10:12:05;;;;;;;3.37;2.80;;;11.80;97.10;;;;;;21162757;28;20236;-74
2023/01/07 10:22:32;;;;;;;6.00;3.10;;;11.80;96.80;;;;;;21162183;28;20642;-75
2023/01/07 10:32:35;;;;;;;4.80;3.10;;;11.90;96.10;;;;;;21162396;28;20306;-72
2023/01/07 10:42:40;;;;;;;3.07;2.77;;;11.90;96.40;;;;;;21161688;28;20239;-72
2023/01/07 10:53:14;;;;;;;4.40;3.30;;;12.10;96.20;;;;;;21160966;28;20596;-76
2023/01/07 11:03:20;;;;;;;6.10;3.87;;;12.10;96.10;;;;;;21127748;28;20226;-76
2023/01/07 11:13:28;;;;;;;3.40;3.10;;;12.20;96.00;;;;;;21171446;28;20232;-74
2023/01/07 11:23:40;;;;;;;2.80;2.60;;;12.20;95.90;;;;;;21175416;28;20594;-73
2023/01/07 11:33:47;;;;;;;2.60;2.30;;;12.00;95.10;;;;;;21174320;28;20624;-73
2023/01/07 11:44:15;;;;;;;2.30;2.10;;;12.00;94.70;;;;;;21173570;28;20209;-73
2023/01/07 11:54:23;;;;;;;2.07;1.87;;;11.90;93.80;;;;;;21174549;28;20240;-76
2023/01/07 12:04:35;;;;;;;1.70;1.60;;;11.80;93.40;;;;;;21172341;28;20253;-77
2023/01/07 12:14:38;;;;;;;1.60;1.50;;;11.80;93.00;;;;;;21170960;28;20236;-73
2023/01/07 12:25:03;;;;;;;1.93;1.60;;;11.70;92.60;;;;;;21170215;28;20234;-73
2023/01/07 12:35:19;;;;;;;1.67;1.57;;;11.80;92.10;;;;;;21170183;28;20237;-73
2023/01/07 12:45:41;;;;;;;1.40;1.30;;;11.90;92.40;;;;;;21169202;28;20207;-75
2023/01/07 12:55:51;;;;;;;2.20;1.60;;;12.00;92.20;;;;;;21167845;28;20237;-73
2023/01/07 13:06:11;;;;;;;3.27;1.60;;;12.00;91.90;;;;;;21167149;28;20652;-74
2023/01/07 13:16:13;;;;;;;2.13;1.70;;;11.90;91.70;;;;;;21166484;28;20231;-77
2023/01/07 13:26:26;;;;;;;2.00;1.80;;;11.90;91.60;;;;;;21165341;28;20206;-73
2023/01/07 13:36:45;;;;;;;2.30;2.00;;;11.80;90.90;;;;;;21163877;28;20236;-72
2023/01/07 13:46:47;;;;;;;1.93;1.70;;;11.80;91.20;;;;;;21164338;28;20306;-73
2023/01/07 13:56:50;;;;;;;1.87;1.77;;;11.90;91.00;;;;;;21163114;28;20245;-73
2023/01/07 14:06:58;;;;;;;2.10;1.83;;;12.00;91.00;;;;;;21162928;28;20217;-73
2023/01/07 14:17:16;;;;;;;5.27;1.80;;;12.00;90.80;;;;;;21162848;28;20286;-73
2023/01/07 14:27:49;;;;;;;1.90;1.70;;;12.10;91.00;;;;;;21161981;28;20229;-72
2023/01/07 14:37:50;;;;;;;2.00;1.70;;;12.30;90.60;;;;;;21161906;28;20236;-73
2023/01/07 14:47:53;;;;;;;2.53;1.90;;;12.40;90.90;;;;;;21174399;28;20234;-72
2023/01/07 14:58:19;;;;;;;2.03;1.73;;;12.30;90.90;;;;;;21177093;28;20237;-74
2023/01/07 15:18:50;;;;;;;3.87;2.27;;;12.00;91.20;;;;;;21176105;28;20290;-76
2023/01/07 15:29:03;;;;;;;2.93;2.33;;;11.80;91.40;;;;;;21175353;28;20661;-72
2023/01/07 15:39:05;;;;;;;2.40;2.00;;;11.60;91.60;;;;;;21173997;28;20234;-77
2023/01/07 15:49:12;;;;;;;4.33;2.27;;;11.50;91.80;;;;;;21173398;28;20228;-76
2023/01/07 15:59:14;;;;;;;3.60;2.83;;;11.40;91.80;;;;;;21171617;28;20231;-77
2023/01/07 16:09:19;;;;;;;6.63;3.87;;;11.20;92.00;;;;;;21171610;28;20201;-76
2023/01/07 16:19:21;;;;;;;9.10;6.03;;;10.90;91.90;;;;;;21135124;28;20285;-74
2023/01/07 16:29:30;;;;;;;12.53;7.70;;;10.80;92.50;;;;;;21085520;28;20270;-74
2023/01/07 16:39:37;;;;;;;11.33;7.30;;;10.60;92.70;;;;;;21083515;28;20232;-74
2023/01/07 16:49:39;;;;;;;13.60;9.83;;;10.40;93.00;;;;;;21083605;28;20229;-78
2023/01/07 16:59:48;;;;;;;10.30;6.40;;;10.10;93.20;;;;;;21083127;28;20289;-77
2023/01/07 17:09:59;;;;;;;10.30;7.00;;;10.00;93.70;;;;;;21081317;28;20204;-73
2023/01/07 17:20:18;;;;;;;12.30;7.63;;;9.80;94.50;;;;;;21081801;28;20230;-76
2023/01/07 17:30:22;;;;;;;12.93;8.03;;;9.70;94.50;;;;;;21080963;28;20206;-76
2023/01/07 17:40:23;;;;;;;12.47;8.17;;;9.60;95.00;;;;;;21079966;28;20264;-72
2023/01/07 17:50:31;;;;;;;13.47;8.37;;;9.40;95.20;;;;;;21078875;28;20297;-75
2023/01/07 18:00:34;;;;;;;16.20;9.77;;;9.30;95.60;;;;;;21079238;28;20202;-75
2023/01/07 18:20:57;;;;;;;22.90;13.77;;;9.00;96.00;;;;;;21087794;28;20214;-71
2023/01/07 18:30:58;;;;;;;25.50;15.50;;;8.90;96.30;;;;;;21095103;28;20234;-71
2023/01/07 18:41:00;;;;;;;17.80;10.43;;;8.80;96.40;;;;;;21094351;28;20627;-72
2023/01/07 18:51:08;;;;;;;17.20;11.37;;;8.70;96.60;;;;;;21092447;28;20247;-75
2023/01/07 19:01:10;;;;;;;25.57;14.50;;;8.70;96.80;;;;;;21090684;28;20198;-72
2023/01/07 19:11:13;;;;;;;15.80;10.83;;;8.50;96.90;;;;;;21089685;28;20230;-74
2023/01/07 19:21:14;;;;;;;18.10;11.60;;;8.40;97.00;;;;;;21094805;28;20257;-80
2023/01/07 19:31:16;;;;;;;20.00;11.27;;;8.40;97.30;;;;;;21138637;28;20229;-80
2023/01/07 19:41:19;;;;;;;17.37;11.47;;;8.30;97.40;;;;;;21174123;28;20212;-79
2023/01/07 19:51:21;;;;;;;22.03;12.50;;;8.00;97.30;;;;;;21170659;28;20264;-82
2023/01/07 20:01:25;;;;;;;19.20;12.43;;;8.00;97.50;;;;;;21170583;28;20648;-81
2023/01/07 20:11:27;;;;;;;17.00;10.97;;;7.90;97.60;;;;;;21168662;28;20241;-79
2023/01/07 20:21:29;;;;;;;17.23;12.50;;;7.90;97.80;;;;;;21168792;28;20247;-81
2023/01/07 20:31:30;;;;;;;17.57;12.87;;;7.90;97.80;;;;;;21167143;28;20238;-77
2023/01/07 20:41:33;;;;;;;17.73;11.67;;;7.80;97.90;;;;;;21168250;28;20209;-77
2023/01/07 20:51:35;;;;;;;17.10;11.27;;;7.70;98.30;;;;;;21167847;28;20241;-80
2023/01/07 21:01:37;;;;;;;18.20;11.30;;;7.70;98.10;;;;;;21166375;28;20209;-78
2023/01/07 21:11:39;;;;;;;16.20;11.27;;;7.70;98.20;;;;;;21163652;28;20759;-81
2023/01/07 21:21:41;;;;;;;16.70;11.50;;;7.60;98.20;;;;;;21164101;28;20213;-81
2023/01/07 21:31:44;;;;;;;19.37;11.33;;;7.60;98.30;;;;;;21163341;28;20241;-78
2023/01/07 21:41:46;;;;;;;16.60;10.77;;;7.50;98.20;;;;;;21162359;28;20204;-78
2023/01/07 21:51:48;;;;;;;17.17;10.67;;;7.50;98.30;;;;;;21161622;28;20291;-80
2023/01/07 22:01:50;;;;;;;14.60;10.87;;;7.50;98.30;;;;;;21161549;28;20563;-77
2023/01/07 22:11:52;;;;;;;15.50;10.87;;;7.30;98.00;;;;;;21160653;28;20240;-77
2023/01/07 22:21:54;;;;;;;14.20;10.73;;;7.40;98.30;;;;;;21160096;28;20212;-76
2023/01/07 22:31:56;;;;;;;17.47;11.67;;;7.30;98.40;;;;;;21158329;28;20228;-75
2023/01/07 22:42:12;;;;;;;14.63;10.53;;;7.40;98.40;;;;;;21159402;28;20205;-76
2023/01/07 22:52:13;;;;;;;16.10;10.17;;;7.40;98.50;;;;;;21158972;28;20650;-75
2023/01/07 23:02:15;;;;;;;13.63;10.07;;;7.30;98.10;;;;;;21160622;28;20205;-76
2023/01/07 23:12:17;;;;;;;14.03;10.57;;;7.40;98.30;;;;;;21156205;28;20236;-80
2023/01/07 23:22:18;;;;;;;13.10;9.77;;;7.40;98.50;;;;;;21173285;28;20208;-76
2023/01/07 23:32:20;;;;;;;12.77;10.10;;;7.60;98.50;;;;;;21172734;28;20240;-77
2023/01/07 23:42:22;;;;;;;13.17;9.80;;;7.40;98.40;;;;;;21171631;28;20208;-74
2023/01/07 23:52:23;;;;;;;14.07;10.37;;;7.50;98.30;;;;;;21170513;28;20240;-75
